Time;durP1;ratioP1;P1;durP2;ratioP2;P2;SDS_P1;SDS_P2;PMS_P1;PMS_P2;Temp;Humidity;BMP_temperature;BMP_pressure;BME280_temperature;BME280_humidity;BME280_pressure;Samples;Min_cycle;Max_cycle;Signal;HPM_P1;HPM_P2
2023/01/24 00:01:18;;;;;;;16.17;8.60;;;3.10;99.90;;;;;;5070381;28;20060;-78
2023/01/24 00:03:44;;;;;;;16.55;9.27;;;3.20;99.90;;;;;;5069381;28;20049;-77
2023/01/24 00:06:10;;;;;;;15.68;9.80;;;3.10;99.90;;;;;;5068907;28;20040;-78
2023/01/24 00:08:36;;;;;;;14.20;9.20;;;3.10;99.90;;;;;;5066277;28;20072;-77
2023/01/24 00:11:08;;;;;;;15.30;8.65;;;3.40;99.90;;;;;;5070328;28;20078;-77
2023/01/24 00:13:34;;;;;;;14.55;9.25;;;3.10;99.90;;;;;;5070612;28;20120;-78
2023/01/24 00:16:14;;;;;;;15.20;9.13;;;3.10;99.90;;;;;;5069672;28;20392;-77
2023/01/24 00:18:40;;;;;;;16.80;9.18;;;3.10;99.90;;;;;;5071275;28;20127;-77
2023/01/24 00:21:14;;;;;;;16.95;9.88;;;3.20;99.90;;;;;;5066156;28;20048;-77
2023/01/24 00:23:42;;;;;;;19.55;10.93;;;3.40;99.90;;;;;;5068452;28;20458;-77
2023/01/24 00:26:08;;;;;;;14.85;8.60;;;3.10;99.90;;;;;;5066908;28;20053;-77
2023/01/24 00:28:34;;;;;;;14.32;8.82;;;3.40;99.90;;;;;;5079407;28;20041;-77
2023/01/24 00:31:00;;;;;;;13.82;8.35;;;3.10;99.90;;;;;;5059278;28;20089;-77
2023/01/24 00:33:26;;;;;;;14.27;8.52;;;3.20;99.90;;;;;;5072573;28;20086;-77
2023/01/24 00:35:52;;;;;;;17.42;9.57;;;3.40;99.90;;;;;;5071565;28;20044;-77
2023/01/24 00:38:19;;;;;;;15.27;9.38;;;3.20;99.90;;;;;;5064669;28;20048;-77
2023/01/24 00:40:45;;;;;;;15.57;9.50;;;3.10;99.90;;;;;;5083664;28;20533;-77
2023/01/24 00:43:11;;;;;;;15.45;9.35;;;3.10;99.90;;;;;;5058116;28;20055;-77
2023/01/24 00:45:37;;;;;;;15.23;9.52;;;3.10;99.90;;;;;;5064672;28;20044;-77
2023/01/24 00:48:04;;;;;;;14.15;8.60;;;3.10;99.90;;;;;;5070897;28;20032;-77
2023/01/24 00:50:30;;;;;;;15.70;9.00;;;3.60;99.90;;;;;;5070922;28;20047;-77
2023/01/24 00:52:56;;;;;;;17.23;9.15;;;3.20;99.90;;;;;;5069550;28;20048;-77
2023/01/24 00:55:21;;;;;;;17.90;9.77;;;3.60;99.90;;;;;;5063534;28;20039;-77
2023/01/24 00:57:47;;;;;;;16.10;8.60;;;3.10;99.90;;;;;;5070886;28;20051;-77
2023/01/24 01:00:13;;;;;;;15.80;8.95;;;3.50;99.90;;;;;;5070339;28;20450;-78
2023/01/24 01:02:39;;;;;;;15.00;9.52;;;3.10;99.90;;;;;;5068143;28;20059;-77
2023/01/24 01:05:05;;;;;;;17.92;12.20;;;3.50;99.90;;;;;;5070219;28;20045;-77
2023/01/24 01:07:31;;;;;;;14.90;9.57;;;3.10;99.90;;;;;;5069810;28;20048;-77
2023/01/24 01:09:57;;;;;;;14.93;9.60;;;3.10;99.90;;;;;;5058875;28;20028;-77
2023/01/24 01:12:23;;;;;;;13.75;8.48;;;3.10;99.90;;;;;;5069695;28;20041;-77
2023/01/24 01:14:49;;;;;;;15.30;9.23;;;3.10;99.90;;;;;;5071301;28;20071;-77
2023/01/24 01:17:14;;;;;;;14.05;9.02;;;3.10;99.90;;;;;;5069469;28;20032;-77
2023/01/24 01:19:40;;;;;;;15.02;9.15;;;3.70;99.90;;;;;;5071057;28;20716;-77
2023/01/24 01:22:06;;;;;;;17.08;8.85;;;3.10;99.90;;;;;;5069787;28;20044;-77
2023/01/24 01:24:32;;;;;;;16.02;9.50;;;3.10;99.90;;;;;;5069610;28;20064;-77
2023/01/24 01:26:59;;;;;;;16.17;9.40;;;3.10;99.90;;;;;;5069644;28;20091;-78
2023/01/24 01:29:24;;;;;;;13.90;8.38;;;3.10;99.90;;;;;;5068300;28;20040;-77
2023/01/24 01:31:50;;;;;;;14.15;8.38;;;3.10;99.90;;;;;;5070623;28;20378;-77
2023/01/24 01:34:16;;;;;;;15.20;9.07;;;3.10;99.90;;;;;;5103768;28;20047;-77
2023/01/24 01:36:41;;;;;;;13.82;8.68;;;3.40;99.90;;;;;;5069576;28;20430;-77
2023/01/24 01:39:07;;;;;;;13.43;7.88;;;3.00;99.90;;;;;;5070128;28;20040;-77
2023/01/24 01:41:33;;;;;;;13.35;8.02;;;3.60;99.90;;;;;;5069301;28;20044;-77
2023/01/24 01:47:02;;;;;;;13.70;7.93;;;3.10;99.90;;;;;;5069039;28;20040;-77
2023/01/24 01:49:29;;;;;;;15.13;7.68;;;3.00;99.90;;;;;;5069322;28;20076;-77
2023/01/24 01:52:01;;;;;;;13.40;8.18;;;3.50;99.90;;;;;;5069596;28;20079;-77
2023/01/24 01:54:36;;;;;;;12.10;7.10;;;3.70;99.90;;;;;;5070647;28;20044;-77
2023/01/24 01:57:10;;;;;;;11.13;6.95;;;3.30;99.90;;;;;;5070857;28;20198;-77
2023/01/24 01:59:39;;;;;;;10.65;6.80;;;3.20;99.90;;;;;;5070578;28;20043;-77
2023/01/24 02:02:07;;;;;;;10.55;6.95;;;3.30;99.90;;;;;;5070449;28;20056;-77
2023/01/24 02:04:35;;;;;;;11.65;6.32;;;3.10;99.90;;;;;;5069099;28;20147;-77
2023/01/24 02:07:10;;;;;;;9.68;6.15;;;3.30;99.90;;;;;;5067265;28;20056;-77
2023/01/24 02:09:45;;;;;;;11.18;7.20;;;3.10;99.90;;;;;;5068256;28;20040;-77
2023/01/24 02:12:15;;;;;;;9.90;6.10;;;3.20;99.90;;;;;;5071734;28;20043;-77
2023/01/24 02:17:26;;;;;;;10.95;6.15;;;3.00;99.90;;;;;;5072609;28;20114;-77
2023/01/24 02:19:58;;;;;;;11.50;6.65;;;3.10;99.90;;;;;;5074111;28;20468;-77
2023/01/24 02:22:29;;;;;;;10.05;6.45;;;3.20;99.90;;;;;;5073670;28;20047;-77
2023/01/24 02:25:08;;;;;;;10.32;6.32;;;3.10;99.90;;;;;;5069264;28;20068;-77
2023/01/24 02:27:34;;;;;;;9.48;6.20;;;3.10;99.90;;;;;;5073968;28;20040;-77
2023/01/24 02:30:00;;;;;;;10.75;6.43;;;3.10;99.90;;;;;;5073981;28;20051;-77
2023/01/24 02:32:26;;;;;;;9.38;6.32;;;3.60;99.90;;;;;;5072692;28;20036;-77
2023/01/24 02:34:52;;;;;;;9.85;6.55;;;3.20;99.90;;;;;;5073652;28;20045;-77
2023/01/24 02:37:18;;;;;;;11.73;6.93;;;3.10;99.90;;;;;;5073269;28;20036;-77
2023/01/24 02:39:52;;;;;;;10.98;7.13;;;3.10;99.90;;;;;;5071099;28;20048;-77
2023/01/24 02:42:22;;;;;;;11.48;7.22;;;3.10;99.90;;;;;;5058009;28;20036;-77
2023/01/24 02:45:05;;;;;;;10.05;6.78;;;3.70;99.90;;;;;;5072170;28;20044;-77
2023/01/24 02:47:36;;;;;;;10.40;6.97;;;3.10;99.90;;;;;;5072903;28;20484;-76
2023/01/24 02:50:03;;;;;;;8.63;5.90;;;3.10;99.90;;;;;;5073330;28;20041;-76
2023/01/24 02:55:14;;;;;;;12.05;6.97;;;3.20;99.90;;;;;;5073421;28;20380;-77
2023/01/24 03:00:24;;;;;;;8.38;5.10;;;3.00;99.90;;;;;;5071742;28;20125;-76
2023/01/24 03:02:50;;;;;;;9.68;5.70;;;3.20;99.90;;;;;;5071860;28;20469;-77
2023/01/24 03:05:16;;;;;;;9.90;6.57;;;3.00;99.90;;;;;;5073471;28;20040;-76
2023/01/24 03:07:43;;;;;;;10.75;6.43;;;3.00;99.90;;;;;;5071327;28;20076;-77
2023/01/24 03:10:11;;;;;;;10.00;6.15;;;3.30;99.90;;;;;;5066664;28;20078;-76
2023/01/24 03:34:32;;;;;;;7.88;5.00;;;3.00;99.90;;;;;;5052731;28;20139;-77
2023/01/24 03:36:59;;;;;;;8.90;6.30;;;3.00;99.90;;;;;;5062316;28;20071;-77
2023/01/24 03:42:09;;;;;;;7.53;5.07;;;3.00;99.90;;;;;;5071619;28;20105;-76
2023/01/24 03:44:35;;;;;;;8.05;5.40;;;3.40;99.90;;;;;;5071871;28;20052;-76
2023/01/24 03:47:01;;;;;;;7.55;4.55;;;3.00;99.90;;;;;;5072174;28;20051;-77
2023/01/24 03:52:29;;;;;;;8.32;4.43;;;3.20;99.90;;;;;;5072342;28;20260;-76
2023/01/24 03:54:55;;;;;;;15.70;13.70;;;3.00;99.90;;;;;;5069457;28;20045;-76
2023/01/24 03:57:22;;;;;;;9.52;4.95;;;3.00;99.90;;;;;;5071137;28;20367;-77
2023/01/24 03:59:48;;;;;;;7.05;4.68;;;3.00;99.90;;;;;;5071317;28;20123;-77
2023/01/24 04:02:14;;;;;;;9.25;5.10;;;3.00;99.90;;;;;;5071568;28;20052;-76
2023/01/24 04:07:24;;;;;;;8.32;5.10;;;3.40;99.90;;;;;;5065829;28;20048;-77
2023/01/24 04:09:49;;;;;;;8.90;5.18;;;3.20;99.90;;;;;;5059953;28;20049;-76
2023/01/24 04:12:17;;;;;;;7.97;5.10;;;3.00;99.90;;;;;;5059335;28;20063;-76
2023/01/24 04:14:42;;;;;;;12.30;5.53;;;3.30;99.90;;;;;;5061522;28;20039;-76
2023/01/24 04:17:09;;;;;;;8.57;5.10;;;3.20;99.90;;;;;;5054661;28;20045;-77
2023/01/24 04:19:34;;;;;;;8.63;4.85;;;3.50;99.90;;;;;;5084847;28;20090;-77
2023/01/24 04:22:00;;;;;;;8.68;5.78;;;2.90;99.90;;;;;;5058137;28;20048;-77
2023/01/24 04:24:26;;;;;;;6.72;4.40;;;3.20;99.90;;;;;;5070443;28;20052;-77
2023/01/24 04:26:51;;;;;;;6.50;4.57;;;2.90;99.90;;;;;;5070510;28;20040;-77
2023/01/24 04:29:17;;;;;;;7.82;4.45;;;3.30;99.90;;;;;;5058684;28;20049;-76
2023/01/24 04:31:43;;;;;;;7.13;4.75;;;2.90;99.90;;;;;;5070422;28;20552;-77
2023/01/24 04:34:08;;;;;;;7.82;5.00;;;2.90;99.90;;;;;;5069157;28;20044;-77
2023/01/24 04:36:34;;;;;;;7.25;4.75;;;2.90;99.90;;;;;;5070191;28;20773;-77
2023/01/24 04:39:00;;;;;;;7.35;5.00;;;3.00;99.90;;;;;;5069713;28;20112;-77
2023/01/24 04:41:25;;;;;;;7.45;4.50;;;2.90;99.90;;;;;;5069664;28;20040;-77
2023/01/24 04:43:51;;;;;;;7.47;4.22;;;3.10;99.90;;;;;;5071645;28;20349;-77
2023/01/24 04:46:17;;;;;;;7.75;4.57;;;2.90;99.90;;;;;;5054581;28;20041;-77
2023/01/24 04:48:43;;;;;;;8.10;4.65;;;3.00;99.90;;;;;;5063878;28;20397;-77
2023/01/24 04:51:11;;;;;;;7.90;4.97;;;3.30;99.90;;;;;;5071150;28;20040;-76
2023/01/24 04:53:39;;;;;;;7.57;4.85;;;2.80;99.90;;;;;;5071408;28;20044;-77
2023/01/24 04:56:05;;;;;;;6.70;4.40;;;2.80;99.90;;;;;;5070307;28;20072;-77
2023/01/24 04:58:32;;;;;;;9.10;5.60;;;2.80;99.90;;;;;;5070215;28;20095;-76
2023/01/24 05:00:58;;;;;;;7.78;5.38;;;2.80;99.90;;;;;;5070493;28;20075;-76
2023/01/24 05:03:24;;;;;;;7.55;4.28;;;2.80;99.90;;;;;;5068729;28;20044;-76
2023/01/24 05:05:50;;;;;;;8.07;4.53;;;2.80;99.90;;;;;;5066742;28;20376;-77
2023/01/24 05:08:16;;;;;;;8.68;4.80;;;2.80;99.90;;;;;;5070031;28;20048;-77
2023/01/24 05:10:42;;;;;;;6.18;4.15;;;2.80;99.90;;;;;;5070059;28;20458;-76
2023/01/24 05:13:07;;;;;;;7.32;4.85;;;2.80;99.90;;;;;;5069899;28;20040;-77
2023/01/24 05:15:33;;;;;;;7.00;4.78;;;3.30;99.90;;;;;;5069724;28;20495;-77
2023/01/24 05:17:59;;;;;;;7.53;5.00;;;2.80;99.90;;;;;;5069085;28;20037;-77
2023/01/24 05:20:25;;;;;;;7.30;4.75;;;3.10;99.90;;;;;;5070682;28;20041;-77
2023/01/24 05:22:50;;;;;;;8.15;5.22;;;2.80;99.90;;;;;;5067973;28;20051;-77
2023/01/24 05:25:16;;;;;;;7.57;4.85;;;2.90;99.90;;;;;;5062016;28;20119;-77
2023/01/24 05:27:42;;;;;;;6.95;4.68;;;2.80;99.90;;;;;;5077929;28;20048;-77
2023/01/24 05:30:09;;;;;;;8.57;4.78;;;3.00;99.90;;;;;;5073617;28;20045;-76
2023/01/24 05:32:35;;;;;;;8.18;5.13;;;2.80;99.90;;;;;;5070090;28;20044;-77
2023/01/24 05:35:00;;;;;;;8.20;5.32;;;2.80;99.90;;;;;;5069455;28;20052;-77
2023/01/24 05:37:26;;;;;;;8.80;5.35;;;3.10;99.90;;;;;;5070316;28;20129;-78
2023/01/24 05:39:52;;;;;;;8.38;5.28;;;2.70;99.90;;;;;;5063908;28;20037;-77
2023/01/24 05:42:18;;;;;;;8.55;4.47;;;2.70;99.90;;;;;;5071367;28;20495;-77
2023/01/24 05:44:43;;;;;;;8.70;5.45;;;2.70;99.90;;;;;;5074616;28;20082;-77
2023/01/24 05:47:09;;;;;;;7.57;4.18;;;2.70;99.90;;;;;;5073973;28;20048;-76
2023/01/24 05:49:35;;;;;;;7.10;4.85;;;2.80;99.90;;;;;;5056566;28;20044;-77
2023/01/24 05:52:00;;;;;;;9.30;5.35;;;2.80;99.90;;;;;;5072807;28;20082;-77
2023/01/24 05:54:26;;;;;;;9.02;5.03;;;3.10;99.90;;;;;;5072582;28;20051;-77
2023/01/24 05:56:52;;;;;;;9.13;5.15;;;3.00;99.90;;;;;;5074201;28;20072;-78
2023/01/24 05:59:18;;;;;;;8.07;5.40;;;3.40;99.90;;;;;;5073258;28;20083;-77
2023/01/24 06:01:43;;;;;;;8.25;5.22;;;2.80;99.90;;;;;;5073657;28;20099;-77
2023/01/24 06:04:09;;;;;;;10.15;5.70;;;2.70;99.90;;;;;;5073006;28;20045;-78
2023/01/24 06:06:35;;;;;;;7.85;5.22;;;3.40;99.90;;;;;;5071520;28;20037;-78
2023/01/24 06:09:01;;;;;;;7.88;5.05;;;3.30;99.90;;;;;;5069384;28;20044;-78
2023/01/24 06:11:27;;;;;;;8.73;6.20;;;2.70;99.90;;;;;;5072846;28;20044;-77
2023/01/24 06:13:56;;;;;;;8.07;4.68;;;3.00;99.90;;;;;;5070601;28;20436;-77
2023/01/24 06:16:24;;;;;;;9.30;5.13;;;2.70;99.90;;;;;;5072840;28;20096;-78
2023/01/24 06:18:52;;;;;;;7.55;4.88;;;2.70;99.90;;;;;;5073387;28;20128;-78
2023/01/24 06:21:41;;;;;;;7.25;5.05;;;3.00;99.90;;;;;;5072402;28;20097;-77
2023/01/24 06:24:19;;;;;;;9.60;5.80;;;2.70;99.90;;;;;;5073894;28;20048;-77
2023/01/24 06:26:45;;;;;;;8.68;4.75;;;2.70;99.90;;;;;;5069304;28;20539;-78
2023/01/24 06:29:12;;;;;;;8.48;5.13;;;2.70;99.90;;;;;;5055638;28;20123;-77
2023/01/24 06:31:53;;;;;;;9.52;5.22;;;2.70;99.90;;;;;;5073395;28;20131;-77
2023/01/24 06:34:46;;;;;;;9.27;5.22;;;2.70;99.90;;;;;;5073541;28;20090;-78
2023/01/24 06:37:25;;;;;;;8.55;5.72;;;2.70;99.90;;;;;;5055946;28;20445;-77
2023/01/24 06:39:52;;;;;;;8.45;5.65;;;2.70;99.90;;;;;;5073582;28;20037;-78
2023/01/24 06:42:22;;;;;;;8.07;5.68;;;2.60;99.90;;;;;;5072625;28;20135;-77
2023/01/24 06:44:48;;;;;;;8.40;5.57;;;2.60;99.90;;;;;;5073646;28;20060;-78
2023/01/24 06:47:15;;;;;;;9.20;5.50;;;2.70;99.90;;;;;;5072973;28;20511;-77
2023/01/24 06:49:41;;;;;;;8.77;5.50;;;2.60;99.90;;;;;;5072449;28;20365;-77
2023/01/24 06:52:08;;;;;;;8.68;5.65;;;2.50;99.90;;;;;;5073182;28;20037;-78
2023/01/24 06:54:34;;;;;;;9.18;5.80;;;3.20;99.90;;;;;;5072885;28;20040;-77
2023/01/24 06:57:01;;;;;;;7.95;5.25;;;2.60;99.90;;;;;;5072309;28;20047;-77
2023/01/24 06:59:26;;;;;;;8.90;5.30;;;3.00;99.90;;;;;;5090658;28;20077;-77
2023/01/24 07:01:52;;;;;;;7.50;5.50;;;2.60;99.90;;;;;;5087706;28;20414;-78
2023/01/24 07:04:18;;;;;;;8.05;5.35;;;2.60;99.90;;;;;;5072907;28;20128;-77
2023/01/24 07:06:44;;;;;;;11.52;6.13;;;2.60;99.90;;;;;;5046654;28;20079;-78
2023/01/24 07:09:10;;;;;;;8.05;4.78;;;2.60;99.90;;;;;;5072333;28;20037;-77
2023/01/24 07:11:35;;;;;;;8.98;5.55;;;2.60;99.90;;;;;;5065915;28;20045;-78
2023/01/24 07:14:02;;;;;;;8.18;4.95;;;2.60;99.90;;;;;;5055544;28;20045;-77
2023/01/24 07:16:27;;;;;;;10.15;6.30;;;2.60;99.90;;;;;;5069092;28;20087;-78
2023/01/24 07:18:54;;;;;;;7.90;4.80;;;2.60;99.90;;;;;;5072587;28;20076;-78
2023/01/24 07:21:20;;;;;;;8.40;5.40;;;2.50;99.90;;;;;;5071190;28;20520;-78
2023/01/24 07:23:47;;;;;;;7.78;5.15;;;2.50;99.90;;;;;;5071361;28;20080;-75
2023/01/24 07:26:14;;;;;;;8.20;4.82;;;2.50;99.90;;;;;;5071418;28;20111;-75
2023/01/24 07:28:40;;;;;;;8.00;5.18;;;2.50;99.90;;;;;;5071373;28;20048;-75
2023/01/24 07:31:07;;;;;;;8.68;5.35;;;2.50;99.90;;;;;;5071407;28;20475;-75
2023/01/24 07:33:33;;;;;;;7.25;5.03;;;2.80;99.90;;;;;;5072243;28;20044;-75
2023/01/24 07:35:58;;;;;;;9.02;5.80;;;2.80;99.90;;;;;;5071897;28;20362;-75
2023/01/24 07:38:24;;;;;;;7.55;5.13;;;2.50;99.90;;;;;;5072375;28;20138;-75
2023/01/24 07:40:50;;;;;;;7.90;5.18;;;2.50;99.90;;;;;;5071562;28;20044;-75
2023/01/24 07:43:18;;;;;;;8.85;5.30;;;2.70;99.90;;;;;;5071405;28;20041;-75
2023/01/24 07:45:47;;;;;;;6.75;5.03;;;2.50;99.90;;;;;;5071365;28;20060;-75
2023/01/24 07:48:13;;;;;;;8.27;4.97;;;2.50;99.90;;;;;;5071032;28;20044;-75
2023/01/24 07:50:38;;;;;;;8.15;5.47;;;2.50;99.90;;;;;;5071308;28;20120;-75
2023/01/24 07:53:05;;;;;;;10.55;7.70;;;2.50;99.90;;;;;;5071958;28;20480;-75
2023/01/24 07:55:30;;;;;;;7.38;5.43;;;2.60;99.90;;;;;;5069735;28;20072;-75
2023/01/24 07:58:01;;;;;;;8.65;5.90;;;2.90;99.90;;;;;;5071412;28;20099;-75
2023/01/24 08:00:27;;;;;;;8.73;5.15;;;2.60;99.90;;;;;;5070085;28;20040;-75
2023/01/24 08:02:53;;;;;;;8.70;5.88;;;2.80;99.90;;;;;;5071824;28;20059;-75
2023/01/24 08:05:19;;;;;;;7.78;5.10;;;2.70;99.90;;;;;;5071029;28;20052;-75
2023/01/24 08:07:44;;;;;;;7.50;4.93;;;2.70;99.90;;;;;;5066113;28;20032;-75
2023/01/24 08:10:10;;;;;;;8.32;5.28;;;2.80;99.90;;;;;;5050066;28;20480;-78
2023/01/24 08:12:36;;;;;;;8.43;5.35;;;2.90;99.90;;;;;;5069133;28;20098;-77
2023/01/24 08:15:02;;;;;;;8.48;5.57;;;2.60;99.90;;;;;;5052692;28;20090;-78
2023/01/24 08:17:28;;;;;;;9.60;5.95;;;2.60;99.90;;;;;;5072275;28;20052;-79
2023/01/24 08:19:53;;;;;;;8.88;5.50;;;3.00;99.90;;;;;;5071405;28;20377;-81
2023/01/24 08:22:19;;;;;;;8.52;5.50;;;2.60;99.90;;;;;;5067099;28;20182;-82
2023/01/24 08:24:45;;;;;;;8.82;5.85;;;2.60;99.90;;;;;;5049268;28;20132;-81
2023/01/24 08:27:10;;;;;;;9.43;6.03;;;2.60;99.90;;;;;;5069980;28;20049;-82
2023/01/24 08:29:36;;;;;;;8.82;5.20;;;3.20;99.90;;;;;;5066930;28;20127;-81
2023/01/24 08:32:02;;;;;;;8.18;5.18;;;3.20;99.90;;;;;;5070981;28;21018;-80
2023/01/24 08:34:28;;;;;;;8.85;5.78;;;3.00;99.90;;;;;;5053307;28;20082;-80
2023/01/24 08:36:53;;;;;;;9.32;5.85;;;2.60;99.90;;;;;;5069711;28;20083;-78
2023/01/24 08:39:19;;;;;;;8.93;6.00;;;2.60;99.90;;;;;;5070590;28;20151;-78
2023/01/24 08:41:46;;;;;;;8.48;6.10;;;2.70;99.90;;;;;;5060657;28;20055;-78
2023/01/24 08:44:13;;;;;;;9.30;5.43;;;2.70;99.90;;;;;;5069750;28;20078;-77
2023/01/24 08:46:39;;;;;;;8.35;5.10;;;2.70;99.90;;;;;;5070695;28;20040;-77
2023/01/24 08:49:05;;;;;;;8.00;5.50;;;2.70;99.90;;;;;;5070709;28;20056;-77
2023/01/24 08:51:31;;;;;;;8.05;5.53;;;2.70;99.90;;;;;;5070747;28;20496;-78
2023/01/24 08:53:56;;;;;;;8.18;5.82;;;2.70;99.90;;;;;;5071067;28;20186;-77
2023/01/24 08:56:22;;;;;;;8.40;5.35;;;2.60;99.90;;;;;;5070508;28;20073;-77
2023/01/24 08:58:48;;;;;;;9.15;5.75;;;2.70;99.90;;;;;;5069953;28;20049;-78
2023/01/24 09:01:14;;;;;;;8.00;5.65;;;2.60;99.90;;;;;;5070272;28;20056;-78
2023/01/24 09:03:40;;;;;;;7.57;5.30;;;2.70;99.90;;;;;;5068837;28;20382;-78
2023/01/24 09:06:06;;;;;;;8.77;5.72;;;2.80;99.90;;;;;;5070665;28;20055;-78
2023/01/24 09:08:31;;;;;;;9.70;6.00;;;2.70;99.90;;;;;;5070825;28;20458;-78
2023/01/24 09:10:58;;;;;;;8.80;5.28;;;2.90;99.90;;;;;;5058632;28;20049;-78
2023/01/24 09:13:24;;;;;;;8.85;5.75;;;2.60;99.90;;;;;;5059545;28;20138;-77
2023/01/24 09:15:50;;;;;;;9.10;6.20;;;2.60;99.90;;;;;;5071620;28;20196;-77
2023/01/24 09:18:16;;;;;;;9.30;5.93;;;2.60;99.90;;;;;;5071329;28;20498;-78
2023/01/24 09:20:42;;;;;;;8.18;5.60;;;2.60;99.90;;;;;;5074558;28;20043;-78
2023/01/24 09:23:14;;;;;;;9.55;6.22;;;2.60;99.90;;;;;;5074795;28;20493;-77
2023/01/24 09:25:40;;;;;;;8.30;5.28;;;3.00;99.90;;;;;;5073205;28;20052;-77
2023/01/24 09:28:06;;;;;;;7.88;5.60;;;3.20;99.90;;;;;;5074516;28;20045;-77
2023/01/24 09:30:33;;;;;;;8.27;5.28;;;2.60;99.90;;;;;;5073935;28;20497;-78
2023/01/24 09:32:58;;;;;;;8.55;5.40;;;2.70;99.90;;;;;;5074103;28;20049;-77
2023/01/24 09:35:24;;;;;;;8.73;5.47;;;2.70;99.90;;;;;;5073679;28;20500;-77
2023/01/24 09:37:51;;;;;;;9.07;6.20;;;2.60;99.90;;;;;;5070949;28;20122;-78
2023/01/24 09:40:20;;;;;;;8.13;5.47;;;2.60;99.90;;;;;;5087635;28;20110;-78
2023/01/24 09:42:52;;;;;;;8.85;5.82;;;2.60;99.90;;;;;;5065878;28;20052;-78
2023/01/24 09:45:27;;;;;;;7.70;5.57;;;2.60;99.90;;;;;;5073091;28;20123;-78
2023/01/24 09:47:57;;;;;;;9.02;5.68;;;2.70;99.90;;;;;;5071349;28;20396;-78
2023/01/24 09:50:42;;;;;;;10.48;6.68;;;3.20;99.90;;;;;;5073314;28;20036;-77
2023/01/24 09:53:23;;;;;;;9.23;5.63;;;2.60;99.90;;;;;;5073998;28;20048;-78
2023/01/24 09:55:49;;;;;;;9.27;5.72;;;2.60;99.90;;;;;;5061753;28;20127;-78
2023/01/24 09:58:31;;;;;;;7.30;4.95;;;3.10;99.90;;;;;;5073194;28;20053;-78
2023/01/24 10:01:05;;;;;;;9.07;5.90;;;2.70;99.90;;;;;;5065112;28;20068;-78
2023/01/24 10:03:32;;;;;;;9.52;5.68;;;2.80;99.90;;;;;;5073871;28;20681;-78
2023/01/24 10:06:23;;;;;;;9.07;5.68;;;2.70;99.90;;;;;;5072539;28;20051;-78
2023/01/24 10:08:54;;;;;;;9.82;5.93;;;2.80;99.90;;;;;;5069803;28;20052;-77
2023/01/24 10:11:36;;;;;;;7.85;5.30;;;2.70;99.90;;;;;;5072397;28;20400;-78
2023/01/24 10:14:16;;;;;;;9.02;5.63;;;2.70;99.90;;;;;;5072634;28;20040;-77
2023/01/24 10:17:07;;;;;;;9.15;6.13;;;2.80;99.90;;;;;;5072174;28;20488;-78
2023/01/24 10:20:10;;;;;;;9.18;6.00;;;2.80;99.90;;;;;;5068572;28;20104;-78
2023/01/24 10:23:13;;;;;;;8.07;6.00;;;2.80;99.90;;;;;;5057331;28;20090;-78
2023/01/24 10:25:48;;;;;;;8.95;6.18;;;2.80;99.90;;;;;;5073737;28;20837;-77
2023/01/24 10:28:40;;;;;;;9.77;6.03;;;3.20;99.90;;;;;;5057898;28;20059;-78
2023/01/24 10:31:32;;;;;;;9.75;5.75;;;2.90;99.90;;;;;;5066863;28;20388;-78
2023/01/24 10:34:23;;;;;;;8.13;5.82;;;2.80;99.90;;;;;;5040339;28;20057;-77
2023/01/24 10:36:53;;;;;;;9.57;6.05;;;2.80;99.90;;;;;;5065371;28;20048;-77
2023/01/24 10:39:19;;;;;;;9.10;5.85;;;2.80;99.90;;;;;;5072372;28;20048;-77
2023/01/24 10:41:45;;;;;;;8.55;5.80;;;3.30;99.90;;;;;;5073505;28;20439;-77
2023/01/24 10:44:28;;;;;;;8.95;6.10;;;2.90;99.90;;;;;;5071656;28;20127;-78
2023/01/24 10:47:18;;;;;;;10.18;6.05;;;2.90;99.90;;;;;;5057581;28;20049;-78
2023/01/24 10:49:51;;;;;;;9.85;6.55;;;2.90;99.90;;;;;;5073526;28;20044;-78
2023/01/24 10:52:21;;;;;;;9.65;6.55;;;3.10;99.90;;;;;;5072785;28;20048;-77
2023/01/24 10:54:53;;;;;;;9.55;6.10;;;3.20;99.90;;;;;;5069797;28;20053;-77
2023/01/24 10:57:36;;;;;;;9.32;6.63;;;2.90;99.90;;;;;;5070465;28;20052;-78
2023/01/24 11:00:14;;;;;;;8.90;5.82;;;2.90;99.90;;;;;;5072175;28;20116;-82
2023/01/24 11:02:40;;;;;;;9.90;7.10;;;2.90;99.90;;;;;;5051411;28;20060;-83
2023/01/24 11:05:12;;;;;;;10.38;6.35;;;3.60;99.90;;;;;;5086636;28;20052;-80
2023/01/24 11:07:43;;;;;;;8.88;5.95;;;2.80;99.90;;;;;;5051879;28;20098;-81
2023/01/24 11:10:17;;;;;;;8.20;6.20;;;2.80;99.90;;;;;;5037921;28;20087;-80
2023/01/24 11:12:52;;;;;;;9.55;6.43;;;2.80;99.90;;;;;;5069397;28;20059;-81
2023/01/24 11:15:33;;;;;;;9.20;6.45;;;2.80;99.90;;;;;;5057624;28;20055;-80
2023/01/24 11:18:28;;;;;;;9.63;6.53;;;3.00;99.90;;;;;;5058221;28;20060;-79
2023/01/24 11:21:15;;;;;;;9.75;5.97;;;2.80;99.90;;;;;;5062777;28;20052;-81
2023/01/24 11:23:42;;;;;;;8.75;5.82;;;2.80;99.90;;;;;;5056763;28;20048;-79
2023/01/24 11:26:23;;;;;;;7.80;5.70;;;3.00;99.90;;;;;;5051780;28;20041;-80
2023/01/24 11:29:16;;;;;;;8.85;5.70;;;2.90;99.90;;;;;;5059618;28;20106;-82
2023/01/24 11:31:56;;;;;;;8.70;5.55;;;3.00;99.90;;;;;;5048796;28;20075;-80
2023/01/24 11:34:41;;;;;;;8.25;5.68;;;2.90;99.90;;;;;;5065109;28;20053;-81
2023/01/24 11:37:29;;;;;;;8.35;5.65;;;2.90;99.90;;;;;;5045992;28;20052;-79
2023/01/24 11:40:34;;;;;;;9.88;5.72;;;2.90;99.90;;;;;;5050980;28;20358;-80
2023/01/24 11:43:22;;;;;;;9.00;5.90;;;2.90;99.90;;;;;;5051911;28;20112;-79
2023/01/24 11:45:56;;;;;;;9.63;6.00;;;2.90;99.90;;;;;;5051234;28;20521;-79
2023/01/24 11:48:31;;;;;;;8.02;5.90;;;2.80;99.90;;;;;;5050361;28;20106;-79
2023/01/24 11:51:14;;;;;;;9.77;5.55;;;2.80;99.90;;;;;;5051508;28;20049;-79
2023/01/24 11:53:57;;;;;;;9.65;6.07;;;2.80;99.90;;;;;;5054154;28;20500;-79
2023/01/24 11:56:26;;;;;;;7.13;5.53;;;2.80;99.90;;;;;;5050737;28;20056;-78
2023/01/24 11:59:25;;;;;;;8.75;5.97;;;2.80;99.90;;;;;;5051471;28;20053;-79
2023/01/24 12:02:00;;;;;;;9.93;6.40;;;2.80;99.90;;;;;;5056618;28;20064;-79
2023/01/24 12:04:44;;;;;;;9.10;5.85;;;2.80;99.90;;;;;;5052005;28;20128;-79
2023/01/24 12:07:28;;;;;;;9.82;6.53;;;2.80;99.90;;;;;;5056866;28;20052;-78
2023/01/24 12:10:23;;;;;;;7.90;5.78;;;3.00;99.90;;;;;;5052964;28;20057;-78
2023/01/24 12:12:51;;;;;;;9.75;6.60;;;2.80;99.90;;;;;;5050874;28;20044;-79
2023/01/24 12:15:20;;;;;;;9.25;6.32;;;2.90;99.90;;;;;;5062862;28;20048;-79
2023/01/24 12:18:37;;;;;;;9.38;6.28;;;3.10;99.90;;;;;;5067631;28;20052;-78
2023/01/24 12:21:08;;;;;;;8.60;5.60;;;2.90;99.90;;;;;;5052730;28;20053;-79
2023/01/24 12:24:02;;;;;;;9.85;6.57;;;2.90;99.90;;;;;;5050043;28;20084;-77
2023/01/24 12:26:42;;;;;;;9.63;5.72;;;3.00;99.90;;;;;;5059521;28;20049;-76
2023/01/24 12:29:23;;;;;;;9.38;6.35;;;2.60;99.90;;;;;;5057674;28;20040;-77
2023/01/24 12:32:07;;;;;;;8.90;6.13;;;2.90;99.90;;;;;;5069830;28;20481;-78
2023/01/24 12:35:04;;;;;;;9.52;6.43;;;2.90;99.90;;;;;;5055365;28;20052;-77
2023/01/24 12:37:36;;;;;;;8.95;5.55;;;2.90;99.90;;;;;;5068739;28;20053;-78
2023/01/24 12:40:35;;;;;;;10.82;6.80;;;3.00;99.90;;;;;;5071168;28;20074;-78
2023/01/24 12:43:09;;;;;;;8.77;6.13;;;2.90;99.90;;;;;;5060636;28;20507;-79
2023/01/24 12:45:58;;;;;;;9.60;7.70;;;3.00;99.90;;;;;;5070626;28;20358;-78
2023/01/24 12:48:48;;;;;;;9.20;6.78;;;2.90;99.90;;;;;;5070629;28;20045;-80
2023/01/24 12:51:36;;;;;;;10.48;6.53;;;2.90;99.90;;;;;;5048908;28;20487;-77
2023/01/24 12:54:12;;;;;;;9.50;5.93;;;2.90;99.90;;;;;;5068358;28;20471;-78
2023/01/24 12:57:07;;;;;;;8.30;6.15;;;2.90;99.90;;;;;;5069597;28;20698;-77
2023/01/24 12:59:33;;;;;;;8.30;5.97;;;2.90;99.90;;;;;;5051605;28;20076;-78
2023/01/24 13:02:37;;;;;;;10.20;6.45;;;2.80;99.90;;;;;;5066297;28;20040;-77
2023/01/24 13:05:17;;;;;;;9.68;6.82;;;2.80;99.90;;;;;;5051453;28;20198;-79
2023/01/24 13:08:14;;;;;;;8.98;5.72;;;2.80;99.90;;;;;;5064543;28;20080;-77
2023/01/24 13:10:53;;;;;;;7.80;5.32;;;2.80;99.90;;;;;;5058907;28;20397;-77
2023/01/24 13:13:26;;;;;;;9.75;6.30;;;2.80;99.90;;;;;;5052810;28;20049;-78
2023/01/24 13:15:52;;;;;;;9.18;6.25;;;2.80;99.90;;;;;;5069220;28;20075;-78
2023/01/24 13:18:49;;;;;;;7.97;5.63;;;2.80;99.90;;;;;;5068575;28;20048;-78
2023/01/24 13:21:38;;;;;;;9.65;5.85;;;2.70;99.90;;;;;;5048464;28;20102;-77
2023/01/24 13:24:28;;;;;;;7.75;5.10;;;3.00;99.90;;;;;;5061520;28;20098;-79
2023/01/24 13:27:09;;;;;;;8.40;6.03;;;2.80;99.90;;;;;;5067411;28;20377;-78
2023/01/24 13:29:51;;;;;;;8.63;5.47;;;2.70;99.90;;;;;;5067691;28;20502;-78
2023/01/24 13:32:20;;;;;;;8.70;5.97;;;2.80;99.90;;;;;;5064984;28;20048;-78
2023/01/24 13:34:57;;;;;;;8.45;5.50;;;2.70;99.90;;;;;;5052026;28;20049;-77
2023/01/24 13:37:28;;;;;;;9.32;6.07;;;2.70;99.90;;;;;;5064114;28;20047;-77
2023/01/24 13:40:18;;;;;;;8.68;5.57;;;2.70;99.90;;;;;;5058929;28;20076;-78
2023/01/24 13:42:44;;;;;;;9.45;5.70;;;2.70;99.90;;;;;;5070602;28;20089;-78
2023/01/24 13:45:25;;;;;;;8.32;5.80;;;2.80;99.90;;;;;;5090006;28;20048;-77
2023/01/24 13:47:52;;;;;;;9.32;6.68;;;2.60;99.90;;;;;;5068146;28;20117;-77
2023/01/24 13:50:23;;;;;;;9.18;5.95;;;2.60;99.90;;;;;;5068867;28;20095;-77
2023/01/24 13:52:56;;;;;;;8.80;5.85;;;2.60;99.90;;;;;;5069917;28;20079;-78
2023/01/24 13:55:22;;;;;;;9.40;6.15;;;3.00;99.90;;;;;;5052170;28;20041;-79
2023/01/24 13:58:03;;;;;;;8.82;6.18;;;2.60;99.90;;;;;;5069857;28;20048;-81